Time;durP1;ratioP1;P1;durP2;ratioP2;P2;SDS_P1;SDS_P2;PMS_P1;PMS_P2;Temp;Humidity;BMP_temperature;BMP_pressure;BME280_temperature;BME280_humidity;BME280_pressure;Samples;Min_cycle;Max_cycle;Signal;HPM_P1;HPM_P2
2022/12/22 03:26:08;;;;;;;38.40;22.50;;;;;;;4.67;83.36;99653.11;126557;1293;107552;-71
2022/12/22 03:29:14;;;;;;;39.90;22.80;;;;;;;4.65;83.41;99654.83;126540;1298;107457;-72
2022/12/22 03:32:20;;;;;;;36.80;19.20;;;;;;;4.63;83.46;99655.17;126461;1294;107515;-72
2022/12/22 03:35:26;;;;;;;34.20;19.90;;;;;;;4.63;83.45;99646.94;126479;1301;107380;-72
2022/12/22 03:38:32;;;;;;;33.70;19.50;;;;;;;4.64;83.48;99646.67;126550;1296;106748;-71
2022/12/22 03:48:37;;;;;;;32.60;18.70;;;;;;;4.71;83.52;99638.98;126396;1295;107920;-72
2022/12/22 03:51:45;;;;;;;31.10;18.70;;;;;;;4.74;83.61;99638.11;126485;1301;107470;-71
2022/12/22 03:54:50;;;;;;;32.40;19.00;;;;;;;4.72;83.62;99630.29;126552;1296;107210;-72
2022/12/22 03:57:56;;;;;;;28.30;17.20;;;;;;;4.69;83.76;99634.74;126483;1298;107544;-71
2022/12/22 04:01:09;;;;;;;29.60;17.80;;;;;;;4.68;83.82;99634.05;126517;1301;107540;-73
2022/12/22 04:04:15;;;;;;;27.80;16.00;;;;;;;4.69;83.88;99631.27;126493;1295;107259;-71
2022/12/22 04:07:21;;;;;;;30.40;17.20;;;;;;;4.74;83.85;99625.42;126525;1301;107386;-70
2022/12/22 04:13:49;;;;;;;29.10;16.80;;;;;;;4.82;83.85;99624.69;126504;1299;107493;-70
2022/12/22 04:16:55;;;;;;;27.30;17.40;;;;;;;4.86;83.81;99624.20;126338;1295;108146;-70
2022/12/22 04:20:00;;;;;;;29.50;17.30;;;;;;;4.87;83.68;99618.15;126375;1298;108016;-70
2022/12/22 04:23:06;;;;;;;32.00;17.70;;;;;;;4.86;83.71;99609.05;126321;1295;108120;-71
2022/12/22 04:26:12;;;;;;;29.40;17.30;;;;;;;4.84;83.66;99604.60;126481;1299;108225;-73
2022/12/22 04:29:17;;;;;;;27.60;15.90;;;;;;;4.84;83.91;99596.73;126527;1296;107515;-70
2022/12/22 04:32:23;;;;;;;30.80;18.70;;;;;;;4.85;83.70;99593.23;126591;1298;107547;-71
2022/12/22 04:35:28;;;;;;;31.90;21.00;;;;;;;4.86;83.83;99584.89;126510;1301;106529;-70
2022/12/22 04:38:34;;;;;;;96.50;44.80;;;;;;;4.85;83.78;99583.23;126527;1287;107513;-70
2022/12/22 04:41:39;;;;;;;37.00;21.90;;;;;;;4.82;83.56;99581.23;126388;1298;106858;-70
2022/12/22 04:44:45;;;;;;;80.60;35.90;;;;;;;4.75;83.72;99578.80;126330;1301;108134;-71
2022/12/22 04:47:50;;;;;;;36.30;21.50;;;;;;;4.70;83.67;99580.61;126372;1295;108054;-71
2022/12/22 04:50:58;;;;;;;43.50;22.60;;;;;;;4.63;83.60;99579.27;126479;1299;107555;-70
2022/12/22 04:54:03;;;;;;;37.50;18.90;;;;;;;4.58;83.68;99579.39;126475;1296;107334;-71
2022/12/22 04:57:09;;;;;;;110.50;54.20;;;;;;;4.55;83.78;99579.43;126507;1298;107527;-72
2022/12/22 05:00:17;;;;;;;37.40;21.20;;;;;;;4.55;83.72;99577.70;126475;1295;107621;-74
2022/12/22 05:03:23;;;;;;;61.90;33.30;;;;;;;4.56;83.75;99579.73;126545;1298;107515;-71
2022/12/22 05:06:28;;;;;;;192.80;87.90;;;;;;;4.57;83.64;99580.02;126544;1289;107591;-71
2022/12/22 05:09:34;;;;;;;46.20;24.90;;;;;;;4.55;83.67;99578.18;126518;1296;107511;-70
2022/12/22 05:12:55;;;;;;;36.80;19.50;;;;;;;4.51;83.55;99572.88;126768;1299;107372;-71
2022/12/22 05:16:06;;;;;;;32.60;19.30;;;;;;;4.46;83.51;99570.34;126848;1289;107429;-71
2022/12/22 05:19:12;;;;;;;32.70;17.60;;;;;;;4.39;83.57;99573.21;126495;1293;107529;-71
2022/12/22 05:22:17;;;;;;;32.30;19.30;;;;;;;4.37;83.71;99572.20;126484;1298;107521;-73
2022/12/22 05:25:23;;;;;;;35.60;21.40;;;;;;;4.36;83.86;99579.17;126569;1296;106807;-71
2022/12/22 05:28:28;;;;;;;32.60;19.10;;;;;;;4.38;83.86;99580.20;126312;1296;107538;-71
2022/12/22 05:31:35;;;;;;;31.30;18.80;;;;;;;4.41;83.88;99579.55;126486;1299;106650;-72
2022/12/22 05:34:40;;;;;;;60.50;30.60;;;;;;;4.44;83.73;99584.73;126494;1291;106679;-72
2022/12/22 05:37:46;;;;;;;145.30;53.80;;;;;;;4.43;83.82;99579.61;126524;1298;107504;-72
2022/12/22 05:40:51;;;;;;;113.30;43.10;;;;;;;4.41;83.72;99579.22;126532;1296;107514;-72
2022/12/22 05:43:57;;;;;;;100.20;36.60;;;;;;;4.39;83.72;99578.02;126564;1289;107507;-73
2022/12/22 05:47:02;;;;;;;64.20;27.30;;;;;;;4.35;83.76;99579.89;126464;1298;107596;-72
2022/12/22 05:50:10;;;;;;;216.60;70.20;;;;;;;4.37;83.86;99580.99;126588;1289;107579;-72
2022/12/22 05:53:15;;;;;;;49.60;23.70;;;;;;;4.40;83.78;99584.23;126502;1299;107401;-72
2022/12/22 05:56:21;;;;;;;50.10;25.10;;;;;;;4.43;83.75;99587.65;126694;1302;107549;-72
2022/12/22 05:59:26;;;;;;;66.20;40.30;;;;;;;4.46;83.87;99590.27;126571;1296;107532;-73
2022/12/22 06:02:32;;;;;;;36.70;21.50;;;;;;;4.47;83.77;99594.06;126484;1298;107531;-71
2022/12/22 06:05:37;;;;;;;29.60;18.20;;;;;;;4.47;83.72;99598.10;126541;1288;106830;-69
2022/12/22 06:08:43;;;;;;;30.40;18.20;;;;;;;4.46;83.70;99606.27;126390;1292;107270;-73
2022/12/22 06:11:49;;;;;;;31.40;20.00;;;;;;;4.43;83.69;99607.97;126421;1306;107531;-71
2022/12/22 06:14:54;;;;;;;29.80;16.70;;;;;;;4.39;83.73;99601.58;126544;1298;107564;-72
2022/12/22 06:17:59;;;;;;;26.30;15.80;;;;;;;4.40;83.84;99600.77;126496;1295;107494;-71
2022/12/22 06:21:05;;;;;;;29.00;16.40;;;;;;;4.44;83.78;99595.02;126586;1292;107539;-71
2022/12/22 06:24:11;;;;;;;29.60;17.10;;;;;;;4.46;83.70;99590.58;126599;1296;107406;-74
2022/12/22 06:27:16;;;;;;;28.30;17.10;;;;;;;4.44;83.62;99595.35;126684;1294;107560;-74
2022/12/22 06:30:22;;;;;;;28.90;16.90;;;;;;;4.41;83.58;99596.45;126586;1293;107508;-73
2022/12/22 06:33:28;;;;;;;36.00;20.20;;;;;;;4.35;83.50;99597.85;126660;1293;107613;-76
2022/12/22 06:36:34;;;;;;;73.30;32.60;;;;;;;4.27;83.46;99614.21;126637;1295;108682;-73
2022/12/22 06:39:40;;;;;;;70.20;29.30;;;;;;;4.18;83.44;99608.42;126556;1302;107234;-73
2022/12/22 06:46:09;;;;;;;160.50;54.10;;;;;;;3.99;83.59;99604.77;126490;1295;107329;-73
2022/12/22 06:49:14;;;;;;;81.30;31.30;;;;;;;3.93;83.74;99609.95;126487;1297;107523;-71
2022/12/22 06:52:20;;;;;;;67.00;28.50;;;;;;;3.93;83.76;99609.44;126388;1295;107331;-70
2022/12/22 06:55:25;;;;;;;91.20;40.60;;;;;;;3.98;83.92;99613.13;126350;1297;107222;-73
2022/12/22 06:58:31;;;;;;;40.60;22.30;;;;;;;4.02;83.84;99606.58;126493;1300;106553;-75
2022/12/22 07:01:36;;;;;;;34.60;19.20;;;;;;;4.07;83.89;99597.17;126483;1298;108077;-72
2022/12/22 07:04:42;;;;;;;33.20;17.90;;;;;;;4.10;83.87;99584.48;126489;1299;107511;-75
2022/12/22 07:07:47;;;;;;;38.20;23.10;;;;;;;4.10;83.88;99585.85;126472;1296;107517;-72
2022/12/22 07:10:58;;;;;;;34.50;20.70;;;;;;;4.13;83.89;99582.48;126437;1296;107540;-74
2022/12/22 07:14:04;;;;;;;32.20;18.30;;;;;;;4.16;83.85;99576.58;126465;1298;106746;-73
2022/12/22 07:17:10;;;;;;;28.20;17.70;;;;;;;4.19;83.79;99576.52;126435;1304;106410;-72
2022/12/22 07:20:16;;;;;;;30.10;18.00;;;;;;;4.20;83.73;99575.91;126476;1284;107360;-71
2022/12/22 07:23:22;;;;;;;31.80;18.40;;;;;;;4.21;83.84;99574.70;126354;1304;107357;-73
2022/12/22 07:26:27;;;;;;;35.90;19.80;;;;;;;4.21;83.72;99564.35;126472;1299;107395;-71
2022/12/22 07:29:35;;;;;;;33.10;19.50;;;;;;;4.20;83.79;99564.27;126476;1287;107557;-72
2022/12/22 07:32:40;;;;;;;36.50;18.90;;;;;;;4.18;83.89;99556.14;126507;1290;107290;-72
2022/12/22 07:35:46;;;;;;;34.40;18.80;;;;;;;4.18;84.02;99555.95;126425;1288;107584;-72
2022/12/22 07:38:52;;;;;;;31.80;17.80;;;;;;;4.21;84.03;99554.34;126483;1287;107505;-71
2022/12/22 07:45:21;;;;;;;42.10;23.20;;;;;;;4.35;84.02;99545.23;126576;1299;107444;-72
2022/12/22 07:51:50;;;;;;;51.90;24.80;;;;;;;4.48;83.92;99540.96;126595;1296;106671;-75
2022/12/22 07:54:56;;;;;;;331.60;107.70;;;;;;;4.50;83.77;99541.50;126512;1298;107473;-72
2022/12/22 07:58:01;;;;;;;224.20;74.30;;;;;;;4.52;83.81;99538.84;126491;1289;107558;-72
2022/12/22 08:01:07;;;;;;;160.20;56.40;;;;;;;4.55;83.81;99541.73;126501;1301;107586;-75
2022/12/22 08:04:13;;;;;;;109.80;41.00;;;;;;;4.62;83.88;99539.70;126551;1299;107551;-72
2022/12/22 08:07:19;;;;;;;122.20;43.30;;;;;;;4.70;83.85;99536.35;126503;1302;107482;-72
2022/12/22 08:10:24;;;;;;;144.00;52.00;;;;;;;4.80;83.93;99539.56;126521;1301;107442;-74
2022/12/22 08:13:31;;;;;;;135.70;50.20;;;;;;;4.90;83.85;99539.58;126483;1290;107514;-71
2022/12/22 08:16:36;;;;;;;156.30;57.10;;;;;;;4.97;83.78;99542.51;126569;1296;107381;-72
2022/12/22 08:19:42;;;;;;;95.50;44.10;;;;;;;5.01;83.77;99544.48;126480;1294;107376;-74
2022/12/22 08:22:47;;;;;;;54.30;27.80;;;;;;;5.05;83.62;99546.08;126495;1298;105396;-72
2022/12/22 08:26:00;;;;;;;46.10;25.80;;;;;;;5.07;83.66;99544.21;126501;1299;107542;-72
2022/12/22 08:29:07;;;;;;;;;;;;;;;5.11;83.79;99545.57;126474;1298;107383;-72
2022/12/22 08:32:13;;;;;;;31.10;17.60;;;;;;;5.13;83.90;99542.50;126466;1301;107269;-73
2022/12/22 08:35:19;;;;;;;30.90;17.60;;;;;;;5.18;83.56;99530.48;126457;1301;107756;-74
2022/12/22 08:38:25;;;;;;;32.40;18.30;;;;;;;5.28;83.69;99526.94;126511;1288;106369;-71
2022/12/22 08:41:50;;;;;;;37.70;21.50;;;;;;;5.35;83.37;99528.91;126544;1299;107391;-71
2022/12/22 08:44:55;;;;;;;35.90;21.90;;;;;;;5.42;83.45;99527.46;126499;1300;107411;-73
2022/12/22 08:48:01;;;;;;;35.20;20.90;;;;;;;5.44;83.26;99526.52;126526;1299;107523;-75
2022/12/22 08:51:07;;;;;;;37.40;22.80;;;;;;;5.45;83.01;99529.23;126776;1294;107055;-75
2022/12/22 08:54:13;;;;;;;36.90;21.70;;;;;;;5.43;83.16;99528.71;126524;1298;107504;-74
2022/12/22 08:57:18;;;;;;;33.90;21.20;;;;;;;5.41;83.27;99522.55;126566;1299;107442;-74
2022/12/22 09:00:25;;;;;;;34.30;21.20;;;;;;;5.37;83.15;99518.55;126559;1299;107492;-73
2022/12/22 09:03:31;;;;;;;32.20;18.20;;;;;;;5.35;83.04;99519.60;126484;1301;107375;-72
2022/12/22 09:06:37;;;;;;;31.00;18.70;;;;;;;5.36;83.21;99515.84;126575;1299;105947;-74
2022/12/22 09:09:42;;;;;;;33.10;19.80;;;;;;;5.37;83.16;99511.80;126521;1289;105318;-74
2022/12/22 09:12:50;;;;;;;34.80;20.60;;;;;;;5.42;83.01;99501.70;126641;1287;105761;-74
2022/12/22 09:15:55;;;;;;;39.50;21.60;;;;;;;5.46;82.93;99495.64;126639;1288;107393;-74
2022/12/22 09:19:01;;;;;;;56.00;26.50;;;;;;;5.49;83.13;99495.52;126650;1295;107929;-74
2022/12/22 09:22:08;;;;;;;108.60;43.10;;;;;;;5.53;82.91;99491.34;126607;1296;107330;-73
2022/12/22 09:25:16;;;;;;;61.60;27.80;;;;;;;5.53;82.80;99488.52;126651;1289;107381;-73
2022/12/22 09:28:22;;;;;;;55.50;28.40;;;;;;;5.54;82.89;99481.52;126662;1289;106578;-75
2022/12/22 09:31:29;;;;;;;40.90;22.10;;;;;;;5.51;82.86;99476.89;126506;1299;107234;-73
2022/12/22 09:34:34;;;;;;;34.60;20.10;;;;;;;5.48;82.64;99466.71;126486;1298;107362;-73
2022/12/22 09:37:40;;;;;;;32.80;19.10;;;;;;;5.48;82.61;99463.73;126552;1286;107507;-74
2022/12/22 09:40:46;;;;;;;33.90;20.10;;;;;;;5.49;82.64;99460.65;126894;1282;107074;-76
2022/12/22 09:43:51;;;;;;;34.20;20.70;;;;;;;5.51;82.77;99460.80;126532;1296;107477;-74
2022/12/22 09:47:00;;;;;;;33.00;20.50;;;;;;;5.56;82.84;99451.92;126486;1299;107363;-74
2022/12/22 09:50:08;;;;;;;33.20;21.10;;;;;;;5.61;82.78;99448.30;126479;1296;107611;-75
2022/12/22 09:53:20;;;;;;;33.30;21.10;;;;;;;5.58;82.49;99439.16;126609;1299;107543;-75
2022/12/22 09:56:28;;;;;;;34.80;20.90;;;;;;;5.58;82.38;99437.83;126565;1298;107700;-75
2022/12/22 09:59:35;;;;;;;34.90;21.30;;;;;;;5.57;82.44;99435.08;126529;1294;106958;-74
2022/12/22 10:02:52;;;;;;;36.80;21.00;;;;;;;5.55;82.56;99436.69;126525;1298;107633;-74
2022/12/22 10:06:09;;;;;;;28.00;17.40;;;;;;;5.53;82.61;99428.52;126555;1297;106865;-78
2022/12/22 10:09:22;;;;;;;31.90;17.60;;;;;;;5.52;82.55;99422.59;126873;1281;108485;-75
2022/12/22 10:12:26;;;;;;;;;;;;;;;5.58;82.74;99412.56;126696;1289;107263;-75
2022/12/22 10:15:38;;;;;;;33.10;19.90;;;;;;;5.68;82.67;99406.52;126652;1287;107497;-76
2022/12/22 10:18:58;;;;;;;33.80;21.20;;;;;;;5.75;82.58;99397.40;126544;1299;107522;-75
2022/12/22 10:22:20;;;;;;;34.10;20.90;;;;;;;5.79;82.31;99389.07;126569;1288;107245;-75
2022/12/22 10:25:34;;;;;;;;;;;;;;;5.88;82.57;99390.86;126669;1296;107311;-73
2022/12/22 10:28:44;;;;;;;34.50;20.40;;;;;;;6.00;82.32;99388.54;126586;1289;107651;-72
2022/12/22 10:32:02;;;;;;;34.10;21.60;;;;;;;6.11;82.24;99379.71;126612;1301;107569;-75
2022/12/22 10:35:08;;;;;;;33.00;20.80;;;;;;;6.20;82.02;99375.52;126631;1294;107345;-72
2022/12/22 10:38:22;;;;;;;34.10;19.10;;;;;;;6.28;82.06;99369.08;126550;1302;107683;-72
2022/12/22 10:41:30;;;;;;;30.50;18.70;;;;;;;6.36;81.98;99369.23;126563;1302;107530;-72
2022/12/22 10:44:38;;;;;;;36.30;21.80;;;;;;;6.41;81.74;99366.27;126569;1295;107452;-72
2022/12/22 10:47:49;;;;;;;39.50;23.60;;;;;;;6.45;81.48;99362.84;126549;1295;107427;-72
2022/12/22 10:50:55;;;;;;;38.60;23.00;;;;;;;6.48;81.27;99355.38;126636;1288;107469;-72
2022/12/22 10:54:01;;;;;;;36.60;23.40;;;;;;;6.45;81.14;99347.64;126609;1296;107420;-72
2022/12/22 10:57:29;;;;;;;54.00;27.70;;;;;;;6.44;81.32;99349.68;126610;1288;107328;-73
2022/12/22 11:00:36;;;;;;;366.10;127.60;;;;;;;6.39;81.55;99345.84;126685;1288;107626;-73
2022/12/22 11:03:42;;;;;;;67.80;32.40;;;;;;;6.37;81.41;99343.23;126651;1281;107524;-75
2022/12/22 11:06:48;;;;;;;54.80;27.90;;;;;;;6.26;81.08;99339.50;126564;1287;107173;-75
2022/12/22 11:09:53;;;;;;;74.60;34.60;;;;;;;6.20;81.34;99347.59;126682;1278;106372;-73
2022/12/22 11:13:23;;;;;;;38.20;22.80;;;;;;;6.18;81.18;99344.64;126667;1288;107554;-73
2022/12/22 11:16:37;;;;;;;44.00;22.90;;;;;;;6.15;81.43;99346.83;126668;1288;107408;-74
2022/12/22 11:19:58;;;;;;;103.10;41.30;;;;;;;6.17;81.24;99339.20;126931;1280;107328;-74
2022/12/22 11:23:15;;;;;;;43.40;24.50;;;;;;;6.22;81.00;99336.09;126926;1296;107249;-72
2022/12/22 11:26:30;;;;;;;41.50;23.80;;;;;;;6.19;81.16;99339.23;126854;1295;107513;-73
2022/12/22 11:29:59;;;;;;;37.80;23.50;;;;;;;6.19;81.18;99345.09;126904;1295;107238;-73
2022/12/22 11:33:23;;;;;;;38.80;22.10;;;;;;;6.23;80.97;99333.19;126722;1291;107329;-73
2022/12/22 11:36:39;;;;;;;43.20;25.30;;;;;;;6.24;80.82;99326.02;126587;1295;105929;-73
2022/12/22 11:39:52;;;;;;;39.50;22.90;;;;;;;6.22;80.88;99318.27;126587;1296;107513;-72
2022/12/22 11:43:16;;;;;;;37.80;22.00;;;;;;;6.18;80.70;99314.48;126648;1288;107543;-71
2022/12/22 11:46:29;;;;;;;39.60;20.90;;;;;;;6.03;81.03;99313.11;126563;1296;107374;-72
2022/12/22 11:50:02;;;;;;;41.70;23.00;;;;;;;5.92;81.00;99317.61;126586;1295;108738;-72
2022/12/22 11:53:23;;;;;;;46.30;24.00;;;;;;;5.89;81.28;99316.83;126564;1295;107460;-72
2022/12/22 11:56:33;;;;;;;92.70;50.90;;;;;;;5.85;81.47;99311.89;126552;1296;107494;-73
2022/12/22 11:59:50;;;;;;;49.70;28.60;;;;;;;5.83;81.47;99312.63;126605;1295;109125;-72
2022/12/22 12:03:35;;;;;;;56.10;32.20;;;;;;;5.76;81.47;99304.63;126693;1295;107368;-72
2022/12/22 12:07:05;;;;;;;47.20;26.60;;;;;;;5.71;81.68;99293.79;126639;1301;107531;-72
2022/12/22 12:10:19;;;;;;;53.10;27.80;;;;;;;5.70;81.52;99296.05;126687;1296;107543;-73
2022/12/22 12:13:32;;;;;;;49.60;25.20;;;;;;;5.65;81.38;99291.41;126673;1289;107405;-72
2022/12/22 12:16:46;;;;;;;48.80;24.30;;;;;;;5.55;81.56;99289.86;126574;1296;107456;-72
2022/12/22 12:20:08;;;;;;;48.80;22.50;;;;;;;5.51;81.73;99293.72;126541;1296;107476;-72
2022/12/22 12:23:26;;;;;;;52.20;27.50;;;;;;;5.52;81.91;99292.46;126557;1302;107575;-72
2022/12/22 12:26:39;;;;;;;333.60;159.90;;;;;;;5.50;81.60;99291.02;126606;1295;106512;-71
2022/12/22 12:29:51;;;;;;;63.60;30.90;;;;;;;5.50;81.76;99286.56;126593;1295;107546;-72
2022/12/22 12:33:01;;;;;;;51.90;27.00;;;;;;;5.49;81.80;99279.83;126571;1302;107275;-71
2022/12/22 12:36:16;;;;;;;62.30;32.80;;;;;;;5.44;81.86;99274.11;126619;1296;107255;-73
2022/12/22 12:39:29;;;;;;;52.00;26.10;;;;;;;5.42;81.84;99271.88;126529;1296;107370;-72
2022/12/22 12:42:37;;;;;;;46.00;24.50;;;;;;;5.37;82.03;99267.02;126490;1296;106485;-74
2022/12/22 12:45:44;;;;;;;49.40;24.60;;;;;;;5.31;82.16;99264.56;126497;1299;107496;-72
2022/12/22 12:48:50;;;;;;;44.80;22.10;;;;;;;5.28;82.04;99267.56;126580;1298;107670;-72
2022/12/22 12:51:56;;;;;;;48.70;23.20;;;;;;;5.30;82.29;99252.02;126676;1298;107483;-73
2022/12/22 12:55:26;;;;;;;51.00;25.80;;;;;;;5.31;82.37;99245.91;126488;1298;107518;-74
2022/12/22 12:58:51;;;;;;;56.60;26.60;;;;;;;5.33;82.30;99236.20;126504;1302;107941;-72
2022/12/22 13:02:01;;;;;;;52.70;27.70;;;;;;;5.37;82.46;99238.61;126491;1288;107579;-72
2022/12/22 13:05:27;;;;;;;46.90;23.90;;;;;;;5.38;82.42;99237.52;126530;1289;107508;-72
2022/12/22 13:08:33;;;;;;;96.50;57.80;;;;;;;5.39;82.34;99237.75;126483;1296;108600;-72
2022/12/22 13:11:39;;;;;;;60.40;31.40;;;;;;;5.41;82.45;99235.98;126545;1287;107261;-72
2022/12/22 13:15:00;;;;;;;93.80;50.40;;;;;;;5.41;82.77;99227.84;126468;1298;108571;-72
2022/12/22 13:18:11;;;;;;;48.30;24.90;;;;;;;5.46;82.79;99214.70;126471;1297;107337;-72
2022/12/22 13:21:21;;;;;;;50.70;26.30;;;;;;;5.51;82.61;99200.95;126496;1296;107236;-72
2022/12/22 13:24:34;;;;;;;48.40;25.50;;;;;;;5.55;82.61;99197.67;126495;1291;108467;-72
2022/12/22 13:27:38;;;;;;;;;;;;;;;5.55;82.91;99199.73;125598;1298;1339967;-72
2022/12/22 13:30:47;;;;;;;43.10;23.90;;;;;;;5.54;82.77;99195.08;126454;1298;107261;-72
2022/12/22 13:34:10;;;;;;;44.30;26.20;;;;;;;5.51;82.85;99190.60;126537;1291;107317;-72
2022/12/22 13:37:23;;;;;;;38.50;21.10;;;;;;;5.49;83.17;99192.38;126473;1296;107412;-71
2022/12/22 13:40:30;;;;;;;39.70;23.50;;;;;;;5.49;83.21;99187.08;126552;1288;107508;-72
2022/12/22 13:43:37;;;;;;;37.80;20.30;;;;;;;5.53;83.22;99177.21;126553;1298;107476;-73
2022/12/22 13:46:43;;;;;;;39.30;23.00;;;;;;;5.58;83.34;99170.98;126556;1288;107480;-72
2022/12/22 13:49:49;;;;;;;40.70;21.60;;;;;;;5.66;83.14;99169.92;126614;1280;107603;-72
2022/12/22 13:52:57;;;;;;;34.70;20.90;;;;;;;5.70;83.05;99172.82;126729;1295;107546;-72
2022/12/22 13:56:05;;;;;;;34.60;21.30;;;;;;;5.71;82.84;99166.73;126736;1295;107281;-72
2022/12/22 13:59:26;;;;;;;162.80;62.60;;;;;;;5.70;82.97;99168.48;126780;1296;107527;-72
2022/12/22 14:02:33;;;;;;;42.00;22.60;;;;;;;5.66;82.86;99167.98;126662;1296;107960;-71
2022/12/22 14:05:39;;;;;;;32.70;18.40;;;;;;;5.64;83.27;99164.97;126692;1292;105883;-72
2022/12/22 14:08:44;;;;;;;34.00;19.10;;;;;;;5.63;83.06;99159.47;126559;1288;107377;-71
2022/12/22 14:11:52;;;;;;;33.40;19.30;;;;;;;5.63;83.11;99157.11;126496;1294;107558;-72
2022/12/22 14:15:01;;;;;;;32.40;19.50;;;;;;;5.63;83.17;99150.20;126559;1289;107384;-72
2022/12/22 14:18:12;;;;;;;31.90;19.40;;;;;;;5.63;83.11;99149.07;126536;1298;107545;-72
2022/12/22 14:21:18;;;;;;;33.10;20.50;;;;;;;5.60;83.36;99152.33;126493;1298;107392;-72
2022/12/22 14:24:26;;;;;;;31.90;19.10;;;;;;;5.55;83.38;99149.80;126718;1281;107454;-72
2022/12/22 14:27:36;;;;;;;28.30;16.80;;;;;;;5.49;83.44;99148.56;126598;1288;107247;-74
2022/12/22 14:30:48;;;;;;;30.30;17.20;;;;;;;5.43;83.54;99145.95;126812;1285;107372;-73
2022/12/22 14:33:55;;;;;;;29.80;18.10;;;;;;;5.42;83.70;99146.83;126792;1289;107256;-72
2022/12/22 14:37:02;;;;;;;29.80;18.40;;;;;;;5.39;83.53;99150.79;126888;1289;107545;-74
2022/12/22 14:40:29;;;;;;;32.20;19.80;;;;;;;5.40;83.44;99148.23;126828;1293;107582;-72
2022/12/22 14:43:35;;;;;;;35.70;19.80;;;;;;;5.41;83.41;99145.27;126884;1289;107397;-72
2022/12/22 14:46:40;;;;;;;33.50;19.40;;;;;;;5.42;83.67;99140.31;126850;1298;107299;-72
2022/12/22 14:49:49;;;;;;;30.80;18.90;;;;;;;5.39;83.54;99136.48;126784;1298;107548;-72
2022/12/22 14:52:56;;;;;;;30.30;17.70;;;;;;;5.36;83.65;99133.33;126901;1289;107273;-72
2022/12/22 14:56:02;;;;;;;29.80;17.30;;;;;;;5.32;83.71;99133.81;126842;1298;107274;-73
2022/12/22 14:59:22;;;;;;;30.80;17.60;;;;;;;5.31;83.99;99135.52;126867;1298;107588;-74
2022/12/22 15:02:31;;;;;;;33.60;18.40;;;;;;;5.32;83.80;99137.35;126814;1298;106576;-73
2022/12/22 15:05:38;;;;;;;29.10;18.40;;;;;;;5.37;84.02;99133.73;126535;1298;107623;-73
2022/12/22 15:08:44;;;;;;;31.40;19.50;;;;;;;5.39;83.94;99127.38;126555;1289;107642;-73
2022/12/22 15:11:54;;;;;;;31.80;19.10;;;;;;;5.39;83.83;99123.98;126638;1287;108112;-74
2022/12/22 15:15:02;;;;;;;29.20;18.60;;;;;;;5.37;83.66;99120.82;126627;1289;107235;-73
2022/12/22 15:18:12;;;;;;;27.30;16.80;;;;;;;5.34;83.92;99123.24;126618;1295;107576;-73
2022/12/22 15:21:19;;;;;;;27.70;17.10;;;;;;;5.31;84.15;99123.54;126593;1281;109806;-74
2022/12/22 15:24:25;;;;;;;28.80;17.40;;;;;;;5.32;84.18;99119.36;126720;1302;107369;-74
2022/12/22 15:27:30;;;;;;;28.80;18.00;;;;;;;5.35;84.03;99113.42;126605;1295;107402;-73
2022/12/22 15:30:36;;;;;;;31.70;19.10;;;;;;;5.38;84.09;99111.88;126625;1281;108648;-72
2022/12/22 15:33:42;;;;;;;31.00;19.50;;;;;;;5.39;84.20;99110.18;126638;1287;108717;-72
2022/12/22 15:36:47;;;;;;;31.80;20.20;;;;;;;5.41;84.21;99103.55;126593;1281;107366;-74
2022/12/22 15:39:53;;;;;;;30.40;19.00;;;;;;;5.40;84.09;99104.64;126606;1288;107505;-73
2022/12/22 15:42:58;;;;;;;32.20;19.20;;;;;;;5.38;84.20;99104.36;126674;1288;106741;-72
2022/12/22 15:46:06;;;;;;;31.20;17.80;;;;;;;5.36;84.22;99105.79;126647;1295;107515;-74
2022/12/22 15:49:18;;;;;;;33.00;18.20;;;;;;;5.35;84.29;99111.86;126602;1295;107383;-71
2022/12/22 15:52:23;;;;;;;33.80;19.30;;;;;;;5.38;84.19;99110.14;126632;1295;107416;-73
2022/12/22 15:55:29;;;;;;;34.20;20.80;;;;;;;5.43;84.50;99101.44;126634;1280;107486;-74
2022/12/22 15:58:37;;;;;;;38.90;21.80;;;;;;;5.43;84.28;99097.27;126691;1281;109174;-74
2022/12/22 16:01:42;;;;;;;32.10;19.80;;;;;;;5.44;84.39;99096.14;126581;1284;107451;-72
2022/12/22 16:04:48;;;;;;;34.60;20.10;;;;;;;5.42;84.53;99095.70;126615;1285;107389;-72
2022/12/22 16:07:53;;;;;;;29.90;17.80;;;;;;;5.38;84.27;99093.05;126549;1295;107555;-71
2022/12/22 16:10:59;;;;;;;30.20;17.60;;;;;;;5.36;84.48;99089.25;126534;1295;106261;-70
2022/12/22 16:14:05;;;;;;;30.40;16.40;;;;;;;5.37;84.40;99091.22;126629;1295;107952;-70
2022/12/22 16:17:18;;;;;;;28.50;17.20;;;;;;;5.41;84.45;99091.52;126508;1289;107242;-71
2022/12/22 16:20:24;;;;;;;28.60;17.80;;;;;;;5.47;84.53;99088.31;126488;1295;107394;-74
2022/12/22 16:23:30;;;;;;;30.30;18.20;;;;;;;5.52;84.49;99094.72;126659;1296;107618;-72
2022/12/22 16:26:36;;;;;;;28.60;17.60;;;;;;;5.55;84.35;99096.23;126590;1288;106550;-70
2022/12/22 16:29:43;;;;;;;29.20;15.90;;;;;;;5.54;84.31;99086.01;126417;1296;107948;-71
2022/12/22 16:32:49;;;;;;;29.40;15.50;;;;;;;5.54;84.57;99093.61;126647;1292;107288;-72
2022/12/22 16:35:55;;;;;;;27.70;16.60;;;;;;;5.57;84.72;99089.84;126837;1295;107565;-73
2022/12/22 16:39:00;;;;;;;29.50;16.60;;;;;;;5.64;84.38;99081.94;126861;1289;107640;-73
2022/12/22 16:42:12;;;;;;;27.20;17.20;;;;;;;5.67;84.43;99079.83;126822;1295;107537;-72
2022/12/22 16:45:22;;;;;;;38.40;23.00;;;;;;;5.68;84.56;99078.45;126693;1295;107454;-70
2022/12/22 16:48:34;;;;;;;36.40;20.70;;;;;;;5.68;84.60;99077.45;126647;1295;107232;-71
2022/12/22 16:51:47;;;;;;;43.70;25.90;;;;;;;5.66;84.26;99073.42;126801;1295;107582;-71
2022/12/22 16:54:52;;;;;;;25.30;15.70;;;;;;;5.62;84.69;99075.18;126907;1295;107483;-70
2022/12/22 16:57:58;;;;;;;27.00;16.90;;;;;;;5.60;84.35;99077.92;126865;1295;106682;-71
2022/12/22 17:01:04;;;;;;;37.90;20.30;;;;;;;5.59;84.27;99078.68;126805;1295;107231;-70
2022/12/22 17:04:13;;;;;;;34.90;19.80;;;;;;;5.60;84.28;99076.86;126535;1295;107987;-69
2022/12/22 17:07:20;;;;;;;34.80;20.90;;;;;;;5.59;84.37;99069.48;126478;1289;108359;-70
2022/12/22 17:10:26;;;;;;;36.20;19.50;;;;;;;5.57;84.46;99072.31;126361;1281;107580;-71
2022/12/22 17:13:32;;;;;;;34.60;20.90;;;;;;;5.56;84.08;99064.52;126330;1298;108055;-70
2022/12/22 17:16:37;;;;;;;105.80;42.70;;;;;;;5.52;84.26;99058.86;126337;1298;108084;-70
2022/12/22 17:19:43;;;;;;;37.00;20.60;;;;;;;5.47;84.50;99057.30;126313;1298;108433;-69
2022/12/22 17:22:52;;;;;;;31.10;18.30;;;;;;;5.43;84.41;99057.52;126310;1298;108184;-69
2022/12/22 17:25:59;;;;;;;48.80;23.80;;;;;;;5.42;84.32;99055.77;126518;1298;109215;-71
2022/12/22 17:29:05;;;;;;;49.50;24.70;;;;;;;5.46;84.68;99058.34;126647;1298;107620;-71
2022/12/22 17:32:14;;;;;;;36.90;19.80;;;;;;;5.49;84.38;99052.42;126525;1297;107229;-70
2022/12/22 17:35:22;;;;;;;35.70;19.70;;;;;;;5.51;84.18;99048.24;126406;1298;107580;-70
2022/12/22 17:38:28;;;;;;;69.50;32.90;;;;;;;5.51;84.42;99048.94;126675;1288;108084;-72
2022/12/22 17:41:34;;;;;;;65.40;32.30;;;;;;;5.49;84.24;99052.98;126387;1303;107272;-70
2022/12/22 17:44:39;;;;;;;60.70;29.30;;;;;;;5.47;84.34;99050.55;126318;1297;106777;-70
2022/12/22 17:47:46;;;;;;;29.10;16.70;;;;;;;5.45;84.27;99044.72;126368;1297;107510;-75
2022/12/22 17:50:51;;;;;;;28.50;16.00;;;;;;;5.46;84.28;99036.54;126511;1282;108649;-72
2022/12/22 17:53:58;;;;;;;31.50;18.80;;;;;;;5.43;84.57;99033.45;126702;1298;107420;-74
2022/12/22 17:57:10;;;;;;;30.20;18.40;;;;;;;5.41;84.32;99030.53;126537;1298;107530;-73
2022/12/22 18:00:21;;;;;;;31.20;17.40;;;;;;;5.40;84.52;99029.54;126492;1297;108230;-73
2022/12/22 18:03:27;;;;;;;28.60;17.30;;;;;;;5.36;84.53;99031.86;126491;1298;107468;-73